Lakeland, Louisiana
Current Conditions -  °F | °C
As of 6:55 PM on Tuesday 21 Oct 2014 (Local Time) from KHZR Reporting Station
Clear Clear  
Wind Chill: 70°   Ceiling: Unl
Heat Index: 70°   Visibility: 10mi
Dew Point: 60°   Wind: 6mph
Humidity: 72%   Direction: 340°NNW
Pressure: 30"   Gusts: NA
Location:  30.6°N, 91.4°W
Report Text: KHZR 212355Z AUTO 34005KT 10SM CLR 21/16 A3000 RMK AO2 T02110158 10265 20211
Loading
Personal Weather Stations






























Interactive Weather Map
Tropical Storm Tracking
New forecast layout! Learn more

10-Day Weather Forecast

Advertisements
Track Severe Weather on mobile